sensor_id;sensor_type;location;lat;lon;timestamp;pressure;altitude;pressure_sealevel;temperature;humidity
26775;BME280;14362;51.902;7.626;2023-02-14T00:01:25;102913.25;;;3.02;100.00
26775;BME280;14362;51.902;7.626;2023-02-14T00:05:26;102917.28;;;2.99;100.00
26775;BME280;14362;51.902;7.626;2023-02-14T00:09:29;102919.03;;;2.94;100.00
26775;BME280;14362;51.902;7.626;2023-02-14T00:13:31;102913.97;;;2.91;100.00
26775;BME280;14362;51.902;7.626;2023-02-14T00:17:33;102912.50;;;2.88;100.00
26775;BME280;14362;51.902;7.626;2023-02-14T00:21:36;102910.19;;;2.85;100.00
26775;BME280;14362;51.902;7.626;2023-02-14T00:25:39;102915.50;;;2.80;100.00
26775;BME280;14362;51.902;7.626;2023-02-14T00:29:40;102913.81;;;2.79;100.00
26775;BME280;14362;51.902;7.626;2023-02-14T00:33:42;102911.72;;;2.75;100.00
26775;BME280;14362;51.902;7.626;2023-02-14T00:37:45;102910.88;;;2.74;100.00
26775;BME280;14362;51.902;7.626;2023-02-14T00:41:48;102914.53;;;2.68;100.00
26775;BME280;14362;51.902;7.626;2023-02-14T00:45:49;102908.59;;;2.65;100.00
26775;BME280;14362;51.902;7.626;2023-02-14T00:49:51;102912.00;;;2.60;100.00
26775;BME280;14362;51.902;7.626;2023-02-14T00:53:52;102912.88;;;2.61;100.00
26775;BME280;14362;51.902;7.626;2023-02-14T00:57:55;102918.38;;;2.61;100.00
26775;BME280;14362;51.902;7.626;2023-02-14T01:01:57;102916.06;;;2.58;100.00
26775;BME280;14362;51.902;7.626;2023-02-14T01:05:58;102923.69;;;2.56;100.00
26775;BME280;14362;51.902;7.626;2023-02-14T01:10:00;102926.69;;;2.54;100.00
26775;BME280;14362;51.902;7.626;2023-02-14T01:14:02;102926.25;;;2.51;100.00
26775;BME280;14362;51.902;7.626;2023-02-14T01:18:04;102927.53;;;2.48;100.00
26775;BME280;14362;51.902;7.626;2023-02-14T01:22:05;102923.97;;;2.41;100.00
26775;BME280;14362;51.902;7.626;2023-02-14T01:26:07;102923.53;;;2.44;100.00
26775;BME280;14362;51.902;7.626;2023-02-14T01:30:12;102924.38;;;2.38;100.00
26775;BME280;14362;51.902;7.626;2023-02-14T01:34:13;102921.25;;;2.35;100.00
26775;BME280;14362;51.902;7.626;2023-02-14T01:38:15;102922.28;;;2.34;100.00
26775;BME280;14362;51.902;7.626;2023-02-14T01:42:16;102916.44;;;2.24;100.00
26775;BME280;14362;51.902;7.626;2023-02-14T01:46:19;102923.00;;;2.23;100.00
26775;BME280;14362;51.902;7.626;2023-02-14T01:50:24;102921.50;;;2.20;100.00
26775;BME280;14362;51.902;7.626;2023-02-14T01:54:30;102916.84;;;2.21;100.00
26775;BME280;14362;51.902;7.626;2023-02-14T01:58:33;102924.91;;;2.16;100.00
26775;BME280;14362;51.902;7.626;2023-02-14T02:02:39;102917.06;;;2.13;100.00
26775;BME280;14362;51.902;7.626;2023-02-14T02:06:42;102904.19;;;2.13;100.00
26775;BME280;14362;51.902;7.626;2023-02-14T02:10:44;102908.84;;;2.06;100.00
26775;BME280;14362;51.902;7.626;2023-02-14T02:14:46;102912.66;;;2.05;100.00
26775;BME280;14362;51.902;7.626;2023-02-14T02:19:01;102903.59;;;2.05;100.00
26775;BME280;14362;51.902;7.626;2023-02-14T02:28:05;102896.81;;;2.01;100.00
26775;BME280;14362;51.902;7.626;2023-02-14T02:32:48;102901.06;;;1.97;100.00
26775;BME280;14362;51.902;7.626;2023-02-14T02:37:09;102889.22;;;1.97;100.00
26775;BME280;14362;51.902;7.626;2023-02-14T02:41:22;102899.75;;;1.99;100.00
26775;BME280;14362;51.902;7.626;2023-02-14T02:45:33;102890.69;;;1.99;100.00
26775;BME280;14362;51.902;7.626;2023-02-14T02:50:07;102891.34;;;1.95;100.00
26775;BME280;14362;51.902;7.626;2023-02-14T02:54:35;102879.47;;;1.94;100.00
26775;BME280;14362;51.902;7.626;2023-02-14T02:58:41;102876.72;;;1.94;100.00
26775;BME280;14362;51.902;7.626;2023-02-14T03:02:47;102878.41;;;1.95;100.00
26775;BME280;14362;51.902;7.626;2023-02-14T03:07:07;102865.13;;;1.86;100.00
26775;BME280;14362;51.902;7.626;2023-02-14T03:11:23;102866.19;;;1.85;100.00
26775;BME280;14362;51.902;7.626;2023-02-14T03:15:35;102860.28;;;1.81;100.00
26775;BME280;14362;51.902;7.626;2023-02-14T03:19:46;102863.06;;;1.75;100.00
26775;BME280;14362;51.902;7.626;2023-02-14T03:24:18;102864.94;;;1.74;100.00
26775;BME280;14362;51.902;7.626;2023-02-14T03:28:31;102872.16;;;1.69;100.00
26775;BME280;14362;51.902;7.626;2023-02-14T03:32:38;102863.06;;;1.68;100.00
26775;BME280;14362;51.902;7.626;2023-02-14T03:36:48;102860.13;;;1.63;100.00
26775;BME280;14362;51.902;7.626;2023-02-14T03:40:53;102853.78;;;1.56;100.00
26775;BME280;14362;51.902;7.626;2023-02-14T03:44:59;102848.09;;;1.58;100.00
26775;BME280;14362;51.902;7.626;2023-02-14T03:49:05;102847.63;;;1.61;100.00
26775;BME280;14362;51.902;7.626;2023-02-14T03:53:11;102845.94;;;1.53;100.00
26775;BME280;14362;51.902;7.626;2023-02-14T03:57:19;102843.63;;;1.44;100.00
26775;BME280;14362;51.902;7.626;2023-02-14T04:01:25;102849.38;;;1.42;100.00
26775;BME280;14362;51.902;7.626;2023-02-14T04:05:28;102850.63;;;1.33;100.00
26775;BME280;14362;51.902;7.626;2023-02-14T04:09:30;102848.53;;;1.29;100.00
26775;BME280;14362;51.902;7.626;2023-02-14T04:13:31;102850.44;;;1.28;100.00
26775;BME280;14362;51.902;7.626;2023-02-14T04:17:36;102844.72;;;1.23;100.00
26775;BME280;14362;51.902;7.626;2023-02-14T04:21:55;102846.84;;;1.15;100.00
26775;BME280;14362;51.902;7.626;2023-02-14T04:25:56;102848.97;;;1.19;100.00
26775;BME280;14362;51.902;7.626;2023-02-14T04:29:57;102847.69;;;1.15;100.00
26775;BME280;14362;51.902;7.626;2023-02-14T04:34:00;102841.16;;;1.10;100.00
26775;BME280;14362;51.902;7.626;2023-02-14T04:38:03;102832.50;;;1.06;100.00
26775;BME280;14362;51.902;7.626;2023-02-14T04:42:06;102835.47;;;1.11;100.00
26775;BME280;14362;51.902;7.626;2023-02-14T04:46:08;102827.00;;;1.06;100.00
26775;BME280;14362;51.902;7.626;2023-02-14T04:50:11;102817.91;;;1.06;100.00
26775;BME280;14362;51.902;7.626;2023-02-14T04:54:12;102826.13;;;1.06;100.00
26775;BME280;14362;51.902;7.626;2023-02-14T04:58:14;102821.69;;;1.05;100.00
26775;BME280;14362;51.902;7.626;2023-02-14T05:02:15;102815.38;;;1.04;100.00
26775;BME280;14362;51.902;7.626;2023-02-14T05:06:18;102813.28;;;1.00;100.00
26775;BME280;14362;51.902;7.626;2023-02-14T05:10:19;102808.63;;;1.00;100.00
26775;BME280;14362;51.902;7.626;2023-02-14T05:14:21;102810.09;;;0.97;100.00
26775;BME280;14362;51.902;7.626;2023-02-14T05:18:23;102798.47;;;0.95;100.00
26775;BME280;14362;51.902;7.626;2023-02-14T05:22:26;102809.25;;;0.96;100.00
26775;BME280;14362;51.902;7.626;2023-02-14T05:26:27;102804.19;;;0.93;100.00
26775;BME280;14362;51.902;7.626;2023-02-14T05:30:29;102801.03;;;0.90;100.00
26775;BME280;14362;51.902;7.626;2023-02-14T05:34:30;102798.06;;;0.91;100.00
26775;BME280;14362;51.902;7.626;2023-02-14T05:38:33;102792.38;;;0.93;100.00
26775;BME280;14362;51.902;7.626;2023-02-14T05:42:34;102798.06;;;0.85;100.00
26775;BME280;14362;51.902;7.626;2023-02-14T05:46:36;102792.97;;;0.88;100.00
26775;BME280;14362;51.902;7.626;2023-02-14T05:50:37;102804.19;;;0.87;100.00
26775;BME280;14362;51.902;7.626;2023-02-14T05:54:42;102800.81;;;0.85;100.00
26775;BME280;14362;51.902;7.626;2023-02-14T05:58:43;102804.84;;;0.82;100.00
26775;BME280;14362;51.902;7.626;2023-02-14T06:02:45;102803.34;;;0.80;100.00
26775;BME280;14362;51.902;7.626;2023-02-14T06:06:46;102804.59;;;0.77;100.00
26775;BME280;14362;51.902;7.626;2023-02-14T06:10:49;102811.97;;;0.77;100.00
26775;BME280;14362;51.902;7.626;2023-02-14T06:14:50;102821.50;;;0.74;100.00
26775;BME280;14362;51.902;7.626;2023-02-14T06:18:52;102817.91;;;0.74;100.00
26775;BME280;14362;51.902;7.626;2023-02-14T06:22:53;102819.81;;;0.73;100.00
26775;BME280;14362;51.902;7.626;2023-02-14T06:26:57;102821.28;;;0.76;100.00
26775;BME280;14362;51.902;7.626;2023-02-14T06:30:58;102821.06;;;0.71;100.00
26775;BME280;14362;51.902;7.626;2023-02-14T06:35:00;102827.16;;;0.66;100.00
26775;BME280;14362;51.902;7.626;2023-02-14T06:39:03;102826.75;;;0.76;100.00
26775;BME280;14362;51.902;7.626;2023-02-14T06:43:05;102832.47;;;0.74;100.00
26775;BME280;14362;51.902;7.626;2023-02-14T06:47:07;102842.81;;;0.72;100.00
26775;BME280;14362;51.902;7.626;2023-02-14T06:51:08;102841.56;;;0.75;100.00
26775;BME280;14362;51.902;7.626;2023-02-14T06:55:10;102845.97;;;0.76;100.00
26775;BME280;14362;51.902;7.626;2023-02-14T06:59:14;102851.91;;;0.73;100.00
26775;BME280;14362;51.902;7.626;2023-02-14T07:03:15;102844.72;;;0.72;100.00
26775;BME280;14362;51.902;7.626;2023-02-14T07:07:17;102851.25;;;0.71;100.00
26775;BME280;14362;51.902;7.626;2023-02-14T07:11:18;102856.94;;;0.76;100.00
26775;BME280;14362;51.902;7.626;2023-02-14T07:15:21;102856.75;;;0.77;100.00
26775;BME280;14362;51.902;7.626;2023-02-14T07:19:22;102860.34;;;0.78;100.00
26775;BME280;14362;51.902;7.626;2023-02-14T07:23:24;102857.19;;;0.81;100.00
26775;BME280;14362;51.902;7.626;2023-02-14T07:27:25;102863.31;;;0.83;100.00
26775;BME280;14362;51.902;7.626;2023-02-14T07:31:28;102865.00;;;0.84;100.00
26775;BME280;14362;51.902;7.626;2023-02-14T07:35:29;102861.84;;;0.87;100.00
26775;BME280;14362;51.902;7.626;2023-02-14T07:39:31;102858.03;;;0.88;100.00
26775;BME280;14362;51.902;7.626;2023-02-14T07:43:32;102866.50;;;0.93;100.00
26775;BME280;14362;51.902;7.626;2023-02-14T07:47:35;102858.44;;;0.98;100.00
26775;BME280;14362;51.902;7.626;2023-02-14T07:51:37;102854.47;;;1.06;100.00
26775;BME280;14362;51.902;7.626;2023-02-14T07:55:38;102851.06;;;1.11;100.00
26775;BME280;14362;51.902;7.626;2023-02-14T07:59:39;102854.69;;;1.18;100.00
26775;BME280;14362;51.902;7.626;2023-02-14T08:03:42;102853.19;;;1.28;100.00
26775;BME280;14362;51.902;7.626;2023-02-14T08:07:48;102844.50;;;1.38;100.00
26775;BME280;14362;51.902;7.626;2023-02-14T08:11:50;102837.53;;;1.48;100.00
26775;BME280;14362;51.902;7.626;2023-02-14T08:16:09;102843.22;;;1.60;100.00
26775;BME280;14362;51.902;7.626;2023-02-14T08:20:13;102843.16;;;1.79;100.00
26775;BME280;14362;51.902;7.626;2023-02-14T08:24:14;102843.97;;;1.93;100.00
26775;BME280;14362;51.902;7.626;2023-02-14T08:28:16;102844.53;;;2.07;100.00
26775;BME280;14362;51.902;7.626;2023-02-14T08:32:18;102850.59;;;2.22;100.00
26775;BME280;14362;51.902;7.626;2023-02-14T08:36:21;102857.06;;;2.41;100.00
26775;BME280;14362;51.902;7.626;2023-02-14T08:40:23;102848.50;;;2.62;100.00
26775;BME280;14362;51.902;7.626;2023-02-14T08:44:25;102845.19;;;2.78;100.00
26775;BME280;14362;51.902;7.626;2023-02-14T08:48:26;102841.66;;;2.95;100.00
26775;BME280;14362;51.902;7.626;2023-02-14T08:52:29;102840.22;;;3.17;100.00
26775;BME280;14362;51.902;7.626;2023-02-14T08:56:30;102826.47;;;3.35;100.00
26775;BME280;14362;51.902;7.626;2023-02-14T09:00:32;102829.69;;;3.56;100.00
26775;BME280;14362;51.902;7.626;2023-02-14T09:04:33;102826.69;;;3.76;100.00
26775;BME280;14362;51.902;7.626;2023-02-14T09:08:37;102822.03;;;3.94;100.00
26775;BME280;14362;51.902;7.626;2023-02-14T09:12:39;102821.16;;;4.11;100.00
26775;BME280;14362;51.902;7.626;2023-02-14T09:16:40;102819.75;;;4.38;100.00
26775;BME280;14362;51.902;7.626;2023-02-14T09:20:42;102814.94;;;4.75;100.00
26775;BME280;14362;51.902;7.626;2023-02-14T09:24:45;102815.38;;;5.01;100.00
26775;BME280;14362;51.902;7.626;2023-02-14T09:28:47;102810.72;;;5.24;100.00
26775;BME280;14362;51.902;7.626;2023-02-14T09:32:50;102815.16;;;5.48;100.00
26775;BME280;14362;51.902;7.626;2023-02-14T09:36:52;102815.53;;;5.75;100.00
26775;BME280;14362;51.902;7.626;2023-02-14T09:40:54;102823.09;;;6.02;100.00
26775;BME280;14362;51.902;7.626;2023-02-14T09:44:59;102814.09;;;6.23;100.00
26775;BME280;14362;51.902;7.626;2023-02-14T09:49:02;102814.78;;;6.41;100.00
26775;BME280;14362;51.902;7.626;2023-02-14T09:53:07;102805.94;;;6.56;100.00
26775;BME280;14362;51.902;7.626;2023-02-14T09:57:21;102797.63;;;6.72;100.00
26775;BME280;14362;51.902;7.626;2023-02-14T10:01:26;102797.34;;;6.85;100.00
26775;BME280;14362;51.902;7.626;2023-02-14T10:05:32;102800.19;;;7.07;100.00
26775;BME280;14362;51.902;7.626;2023-02-14T10:09:52;102794.75;;;7.11;100.00
26775;BME280;14362;51.902;7.626;2023-02-14T10:14:03;102794.31;;;7.19;100.00
26775;BME280;14362;51.902;7.626;2023-02-14T10:18:10;102803.06;;;7.28;100.00
26775;BME280;14362;51.902;7.626;2023-02-14T10:22:16;102804.00;;;7.33;100.00
26775;BME280;14362;51.902;7.626;2023-02-14T10:26:23;102794.13;;;7.42;100.00
26775;BME280;14362;51.902;7.626;2023-02-14T10:30:36;102789.16;;;7.61;100.00
26775;BME280;14362;51.902;7.626;2023-02-14T10:34:42;102785.75;;;7.75;100.00
26775;BME280;14362;51.902;7.626;2023-02-14T10:38:56;102789.38;;;7.97;100.00
26775;BME280;14362;51.902;7.626;2023-02-14T10:43:09;102785.97;;;8.11;100.00
26775;BME280;14362;51.902;7.626;2023-02-14T10:47:27;102778.75;;;8.32;100.00
26775;BME280;14362;51.902;7.626;2023-02-14T10:51:38;102777.13;;;8.36;100.00
26775;BME280;14362;51.902;7.626;2023-02-14T10:55:47;102775.78;;;8.38;100.00
26775;BME280;14362;51.902;7.626;2023-02-14T10:59:52;102771.47;;;8.52;100.00
26775;BME280;14362;51.902;7.626;2023-02-14T11:03:59;102767.66;;;8.58;100.00
26775;BME280;14362;51.902;7.626;2023-02-14T11:08:18;102768.06;;;8.72;100.00
26775;BME280;14362;51.902;7.626;2023-02-14T11:12:34;102758.41;;;8.79;100.00
26775;BME280;14362;51.902;7.626;2023-02-14T11:16:36;102739.88;;;8.90;100.00
26775;BME280;14362;51.902;7.626;2023-02-14T11:20:40;102732.97;;;8.97;100.00
26775;BME280;14362;51.902;7.626;2023-02-14T11:24:41;102725.34;;;9.19;100.00
26775;BME280;14362;51.902;7.626;2023-02-14T11:28:53;102723.72;;;9.23;100.00
26775;BME280;14362;51.902;7.626;2023-02-14T11:32:56;102721.31;;;9.36;100.00
26775;BME280;14362;51.902;7.626;2023-02-14T11:36:59;102703.22;;;9.39;100.00
26775;BME280;14362;51.902;7.626;2023-02-14T11:41:01;102713.91;;;9.57;100.00
26775;BME280;14362;51.902;7.626;2023-02-14T11:45:05;102702.53;;;9.58;100.00
26775;BME280;14362;51.902;7.626;2023-02-14T11:49:24;102698.41;;;9.76;100.00
26775;BME280;14362;51.902;7.626;2023-02-14T11:53:36;102689.66;;;10.04;99.56
26775;BME280;14362;51.902;7.626;2023-02-14T11:57:39;102688.56;;;10.05;100.00
26775;BME280;14362;51.902;7.626;2023-02-14T12:01:45;102679.38;;;10.14;99.31
26775;BME280;14362;51.902;7.626;2023-02-14T12:05:48;102676.34;;;10.30;99.27
26775;BME280;14362;51.902;7.626;2023-02-14T12:10:21;102674.41;;;10.31;97.76
26775;BME280;14362;51.902;7.626;2023-02-14T12:14:25;102661.03;;;10.48;97.28
26775;BME280;14362;51.902;7.626;2023-02-14T12:18:42;102661.06;;;10.53;97.06
26775;BME280;14362;51.902;7.626;2023-02-14T12:22:51;102653.78;;;10.57;97.46
26775;BME280;14362;51.902;7.626;2023-02-14T12:27:04;102653.81;;;10.67;95.43
26775;BME280;14362;51.902;7.626;2023-02-14T12:31:10;102645.41;;;10.77;96.20
26775;BME280;14362;51.902;7.626;2023-02-14T12:35:14;102648.47;;;10.85;96.33
26775;BME280;14362;51.902;7.626;2023-02-14T12:39:22;102631.44;;;11.02;96.93
26775;BME280;14362;51.902;7.626;2023-02-14T12:43:45;102630.03;;;11.19;91.99
26775;BME280;14362;51.902;7.626;2023-02-14T12:47:55;102629.72;;;11.30;94.58
26775;BME280;14362;51.902;7.626;2023-02-14T12:52:09;102627.75;;;11.41;94.83
26775;BME280;14362;51.902;7.626;2023-02-14T12:56:20;102618.75;;;11.49;89.49
26775;BME280;14362;51.902;7.626;2023-02-14T13:00:33;102605.63;;;11.54;89.98
26775;BME280;14362;51.902;7.626;2023-02-14T13:04:48;102599.47;;;11.62;90.67
26775;BME280;14362;51.902;7.626;2023-02-14T13:09:03;102598.84;;;11.75;88.08
26775;BME280;14362;51.902;7.626;2023-02-14T13:13:19;102593.78;;;11.82;87.96
26775;BME280;14362;51.902;7.626;2023-02-14T13:17:28;102592.34;;;11.90;89.17
26775;BME280;14362;51.902;7.626;2023-02-14T13:21:36;102590.88;;;11.97;90.71
26775;BME280;14362;51.902;7.626;2023-02-14T13:25:40;102587.38;;;12.20;83.35
26775;BME280;14362;51.902;7.626;2023-02-14T13:29:46;102572.25;;;12.26;82.65
26775;BME280;14362;51.902;7.626;2023-02-14T13:33:51;102568.53;;;12.35;84.26
26775;BME280;14362;51.902;7.626;2023-02-14T13:37:56;102562.66;;;12.32;85.07
26775;BME280;14362;51.902;7.626;2023-02-14T13:41:59;102558.19;;;12.36;83.71
26775;BME280;14362;51.902;7.626;2023-02-14T13:46:00;102553.53;;;12.55;78.40
26775;BME280;14362;51.902;7.626;2023-02-14T13:50:04;102557.44;;;12.54;78.48
26775;BME280;14362;51.902;7.626;2023-02-14T13:54:19;102544.03;;;12.51;77.97
26775;BME280;14362;51.902;7.626;2023-02-14T13:58:22;102547.69;;;12.51;79.49
26775;BME280;14362;51.902;7.626;2023-02-14T14:02:40;102540.88;;;12.62;83.56
26775;BME280;14362;51.902;7.626;2023-02-14T14:07:22;102534.84;;;12.79;82.77
26775;BME280;14362;51.902;7.626;2023-02-14T14:11:56;102533.75;;;13.03;83.35
26775;BME280;14362;51.902;7.626;2023-02-14T14:16:22;102528.31;;;13.12;81.15
26775;BME280;14362;51.902;7.626;2023-02-14T14:20:37;102527.78;;;13.10;79.91
26775;BME280;14362;51.902;7.626;2023-02-14T14:24:51;102517.66;;;13.14;77.38
26775;BME280;14362;51.902;7.626;2023-02-14T14:28:53;102522.13;;;13.15;73.55
26775;BME280;14362;51.902;7.626;2023-02-14T14:32:55;102518.75;;;13.18;76.09
26775;BME280;14362;51.902;7.626;2023-02-14T14:37:00;102511.63;;;13.25;77.73
26775;BME280;14362;51.902;7.626;2023-02-14T14:41:03;102515.25;;;13.26;73.41
26775;BME280;14362;51.902;7.626;2023-02-14T14:45:07;102520.09;;;13.20;75.73
26775;BME280;14362;51.902;7.626;2023-02-14T14:49:17;102509.50;;;13.17;73.06
26775;BME280;14362;51.902;7.626;2023-02-14T14:53:21;102507.16;;;13.24;70.05
26775;BME280;14362;51.902;7.626;2023-02-14T14:57:26;102493.94;;;13.29;72.63
26775;BME280;14362;51.902;7.626;2023-02-14T15:01:31;102492.75;;;13.35;69.01
26775;BME280;14362;51.902;7.626;2023-02-14T15:05:35;102499.84;;;13.28;70.00
26775;BME280;14362;51.902;7.626;2023-02-14T15:09:37;102488.97;;;13.22;73.35
26775;BME280;14362;51.902;7.626;2023-02-14T15:13:45;102491.00;;;13.39;68.59
26775;BME280;14362;51.902;7.626;2023-02-14T15:17:53;102486.19;;;13.22;68.77
26775;BME280;14362;51.902;7.626;2023-02-14T15:21:55;102486.56;;;13.15;69.98
26775;BME280;14362;51.902;7.626;2023-02-14T15:25:56;102485.25;;;13.08;72.51
26775;BME280;14362;51.902;7.626;2023-02-14T15:30:01;102478.84;;;13.07;70.08
26775;BME280;14362;51.902;7.626;2023-02-14T15:34:04;102475.78;;;13.04;71.60
26775;BME280;14362;51.902;7.626;2023-02-14T15:38:08;102466.66;;;12.93;71.93
26775;BME280;14362;51.902;7.626;2023-02-14T15:42:22;102477.47;;;12.76;74.68
26775;BME280;14362;51.902;7.626;2023-02-14T15:46:32;102471.41;;;12.69;74.38
26775;BME280;14362;51.902;7.626;2023-02-14T15:50:40;102458.72;;;12.53;76.22
26775;BME280;14362;51.902;7.626;2023-02-14T15:54:44;102463.06;;;12.41;76.62
26775;BME280;14362;51.902;7.626;2023-02-14T15:58:47;102457.06;;;12.24;77.54
26775;BME280;14362;51.902;7.626;2023-02-14T16:02:53;102456.75;;;11.97;81.13
26775;BME280;14362;51.902;7.626;2023-02-14T16:07:06;102450.22;;;11.73;83.38
26775;BME280;14362;51.902;7.626;2023-02-14T16:11:12;102458.66;;;11.68;81.35
26775;BME280;14362;51.902;7.626;2023-02-14T16:15:18;102454.78;;;11.59;81.68
26775;BME280;14362;51.902;7.626;2023-02-14T16:19:32;102458.75;;;11.48;83.20
26775;BME280;14362;51.902;7.626;2023-02-14T16:23:34;102458.78;;;11.43;81.60
26775;BME280;14362;51.902;7.626;2023-02-14T16:27:37;102453.63;;;11.22;83.76
26775;BME280;14362;51.902;7.626;2023-02-14T16:31:41;102459.81;;;11.04;85.67
26775;BME280;14362;51.902;7.626;2023-02-14T16:35:45;102457.97;;;10.80;87.50
26775;BME280;14362;51.902;7.626;2023-02-14T16:39:47;102457.47;;;10.58;89.38
26775;BME280;14362;51.902;7.626;2023-02-14T16:43:49;102458.38;;;10.33;91.25
26775;BME280;14362;51.902;7.626;2023-02-14T16:47:51;102462.28;;;10.13;93.09
26775;BME280;14362;51.902;7.626;2023-02-14T16:51:54;102462.56;;;9.96;94.50
26775;BME280;14362;51.902;7.626;2023-02-14T16:55:56;102457.25;;;9.80;95.44
26775;BME280;14362;51.902;7.626;2023-02-14T16:59:57;102463.94;;;9.64;97.18
26775;BME280;14362;51.902;7.626;2023-02-14T17:03:59;102461.94;;;9.49;97.53
26775;BME280;14362;51.902;7.626;2023-02-14T17:08:02;102460.78;;;9.30;99.25
26775;BME280;14362;51.902;7.626;2023-02-14T17:12:08;102466.88;;;9.13;100.00
26775;BME280;14362;51.902;7.626;2023-02-14T17:16:15;102460.44;;;9.02;100.00
26775;BME280;14362;51.902;7.626;2023-02-14T17:20:17;102465.94;;;8.87;100.00
26775;BME280;14362;51.902;7.626;2023-02-14T17:24:20;102461.69;;;8.75;100.00
26775;BME280;14362;51.902;7.626;2023-02-14T17:28:22;102456.88;;;8.60;100.00
26775;BME280;14362;51.902;7.626;2023-02-14T17:32:25;102462.38;;;8.45;100.00
26775;BME280;14362;51.902;7.626;2023-02-14T17:36:29;102460.91;;;8.33;100.00
26775;BME280;14362;51.902;7.626;2023-02-14T17:40:32;102463.31;;;8.19;100.00
26775;BME280;14362;51.902;7.626;2023-02-14T17:44:34;102467.38;;;8.07;100.00
26775;BME280;14362;51.902;7.626;2023-02-14T17:48:36;102467.25;;;7.97;100.00
26775;BME280;14362;51.902;7.626;2023-02-14T17:52:38;102455.75;;;7.84;100.00
26775;BME280;14362;51.902;7.626;2023-02-14T17:56:41;102460.41;;;7.73;100.00
26775;BME280;14362;51.902;7.626;2023-02-14T18:00:42;102462.78;;;7.60;100.00
26775;BME280;14362;51.902;7.626;2023-02-14T18:04:44;102457.13;;;7.50;100.00
26775;BME280;14362;51.902;7.626;2023-02-14T18:08:49;102459.53;;;7.41;100.00
26775;BME280;14362;51.902;7.626;2023-02-14T18:12:53;102460.25;;;7.32;100.00
26775;BME280;14362;51.902;7.626;2023-02-14T18:16:54;102462.16;;;7.26;100.00
26775;BME280;14362;51.902;7.626;2023-02-14T18:20:57;102459.59;;;7.20;100.00
26775;BME280;14362;51.902;7.626;2023-02-14T18:24:59;102448.34;;;7.05;100.00
26775;BME280;14362;51.902;7.626;2023-02-14T18:29:03;102445.63;;;6.89;100.00
26775;BME280;14362;51.902;7.626;2023-02-14T18:33:05;102451.06;;;6.79;100.00
26775;BME280;14362;51.902;7.626;2023-02-14T18:37:07;102439.97;;;6.79;100.00
26775;BME280;14362;51.902;7.626;2023-02-14T18:41:11;102433.13;;;6.65;100.00
26775;BME280;14362;51.902;7.626;2023-02-14T18:45:14;102439.72;;;6.59;100.00
26775;BME280;14362;51.902;7.626;2023-02-14T18:49:16;102427.66;;;6.48;100.00
26775;BME280;14362;51.902;7.626;2023-02-14T18:53:17;102428.16;;;6.45;100.00
26775;BME280;14362;51.902;7.626;2023-02-14T18:57:19;102426.09;;;6.36;100.00
26775;BME280;14362;51.902;7.626;2023-02-14T19:01:24;102422.34;;;6.25;100.00
26775;BME280;14362;51.902;7.626;2023-02-14T19:05:28;102425.81;;;6.16;100.00
26775;BME280;14362;51.902;7.626;2023-02-14T19:09:29;102434.53;;;6.08;100.00
26775;BME280;14362;51.902;7.626;2023-02-14T19:13:38;102419.88;;;5.91;100.00
26775;BME280;14362;51.902;7.626;2023-02-14T19:17:41;102426.41;;;5.85;100.00
26775;BME280;14362;51.902;7.626;2023-02-14T19:21:42;102432.53;;;5.71;100.00
26775;BME280;14362;51.902;7.626;2023-02-14T19:25:44;102422.19;;;5.66;100.00
26775;BME280;14362;51.902;7.626;2023-02-14T19:29:45;102416.34;;;5.63;100.00
26775;BME280;14362;51.902;7.626;2023-02-14T19:33:48;102425.19;;;5.48;100.00
26775;BME280;14362;51.902;7.626;2023-02-14T19:37:50;102420.75;;;5.47;100.00
26775;BME280;14362;51.902;7.626;2023-02-14T19:41:52;102423.78;;;5.46;100.00
26775;BME280;14362;51.902;7.626;2023-02-14T19:45:53;102414.25;;;5.37;100.00
26775;BME280;14362;51.902;7.626;2023-02-14T19:49:57;102414.97;;;5.32;100.00
26775;BME280;14362;51.902;7.626;2023-02-14T19:54:00;102417.19;;;5.19;100.00
26775;BME280;14362;51.902;7.626;2023-02-14T19:58:03;102415.69;;;5.11;100.00
26775;BME280;14362;51.902;7.626;2023-02-14T20:02:04;102412.84;;;5.06;100.00
26775;BME280;14362;51.902;7.626;2023-02-14T20:06:07;102405.78;;;4.99;100.00
26775;BME280;14362;51.902;7.626;2023-02-14T20:10:10;102401.25;;;4.93;100.00
26775;BME280;14362;51.902;7.626;2023-02-14T20:14:12;102396.22;;;4.90;100.00
26775;BME280;14362;51.902;7.626;2023-02-14T20:18:16;102392.50;;;4.85;100.00
26775;BME280;14362;51.902;7.626;2023-02-14T20:22:19;102387.75;;;4.80;100.00
26775;BME280;14362;51.902;7.626;2023-02-14T20:26:22;102384.53;;;4.72;100.00
26775;BME280;14362;51.902;7.626;2023-02-14T20:30:24;102378.91;;;4.67;100.00
26775;BME280;14362;51.902;7.626;2023-02-14T20:34:25;102380.63;;;4.56;100.00
26775;BME280;14362;51.902;7.626;2023-02-14T20:38:28;102375.84;;;4.52;100.00
26775;BME280;14362;51.902;7.626;2023-02-14T20:42:30;102371.88;;;4.48;100.00
26775;BME280;14362;51.902;7.626;2023-02-14T20:46:31;102369.75;;;4.38;100.00
26775;BME280;14362;51.902;7.626;2023-02-14T20:50:33;102369.97;;;4.37;100.00
26775;BME280;14362;51.902;7.626;2023-02-14T20:54:36;102368.22;;;4.31;100.00
26775;BME280;14362;51.902;7.626;2023-02-14T20:58:38;102361.63;;;4.20;100.00
26775;BME280;14362;51.902;7.626;2023-02-14T21:02:39;102364.16;;;4.22;100.00
26775;BME280;14362;51.902;7.626;2023-02-14T21:06:41;102360.31;;;4.11;100.00
26775;BME280;14362;51.902;7.626;2023-02-14T21:10:44;102363.81;;;4.07;100.00
26775;BME280;14362;51.902;7.626;2023-02-14T21:14:45;102362.41;;;4.04;100.00
26775;BME280;14362;51.902;7.626;2023-02-14T21:18:48;102355.91;;;3.99;100.00
26775;BME280;14362;51.902;7.626;2023-02-14T21:22:54;102357.59;;;3.89;100.00
26775;BME280;14362;51.902;7.626;2023-02-14T21:26:57;102356.63;;;3.83;100.00